createdAt,value
2023-01-07T00:01:33.179Z,0.50
2023-01-07T00:03:33.141Z,0.40
2023-01-07T00:05:33.135Z,0.50
2023-01-07T00:07:33.208Z,0.50
2023-01-07T00:09:33.104Z,0.40
2023-01-07T00:11:33.138Z,0.60
2023-01-07T00:13:33.161Z,0.50
2023-01-07T00:15:33.156Z,0.40
2023-01-07T00:17:33.151Z,0.60
2023-01-07T00:19:33.145Z,0.50
2023-01-07T00:21:33.392Z,0.40
2023-01-07T00:23:33.141Z,0.50
2023-01-07T00:25:33.253Z,0.40
2023-01-07T00:27:33.248Z,0.40
2023-01-07T00:29:33.255Z,0.50
2023-01-07T00:31:33.344Z,0.50
2023-01-07T00:33:33.184Z,0.40
2023-01-07T00:35:33.202Z,0.50
2023-01-07T00:37:33.169Z,0.50
2023-01-07T00:39:33.173Z,0.30
2023-01-07T00:41:33.234Z,0.60
2023-01-07T00:43:33.217Z,0.40
2023-01-07T00:45:33.230Z,0.50
2023-01-07T00:47:33.345Z,0.60
2023-01-07T00:49:33.161Z,0.40
2023-01-07T00:53:42.027Z,0.40
2023-01-07T00:55:41.976Z,0.40
2023-01-07T00:57:42.022Z,0.40
2023-01-07T00:59:41.992Z,0.50
2023-01-07T01:01:42.121Z,0.40
2023-01-07T01:03:42.191Z,0.40
2023-01-07T01:05:41.953Z,0.50
2023-01-07T01:07:41.981Z,0.40
2023-01-07T01:09:42.014Z,0.50
2023-01-07T01:11:42.064Z,0.50
2023-01-07T01:13:41.997Z,0.40
2023-01-07T01:15:42.016Z,0.50
2023-01-07T01:17:41.986Z,0.50
2023-01-07T01:19:41.994Z,0.40
2023-01-07T01:21:42.042Z,0.50
2023-01-07T01:23:42.000Z,0.40
2023-01-07T01:25:41.996Z,0.40
2023-01-07T01:27:42.022Z,0.50
2023-01-07T01:29:42.025Z,0.50
2023-01-07T01:31:42.066Z,0.50
2023-01-07T01:33:42.008Z,0.50
2023-01-07T01:35:42.117Z,0.60
2023-01-07T01:37:41.988Z,0.50
2023-01-07T01:39:41.982Z,0.50
2023-01-07T01:41:42.019Z,0.50
2023-01-07T01:43:42.048Z,0.40
2023-01-07T01:45:41.991Z,0.40
2023-01-07T01:47:42.211Z,0.40
2023-01-07T01:49:41.986Z,0.50
2023-01-07T01:51:42.031Z,0.60
2023-01-07T01:53:42.004Z,0.40
2023-01-07T01:55:42.016Z,0.50
2023-01-07T01:57:42.022Z,0.50
2023-01-07T01:59:42.013Z,0.50
2023-01-07T02:01:42.235Z,0.40
2023-01-07T02:03:42.055Z,0.40
2023-01-07T02:05:42.039Z,0.40
2023-01-07T02:07:42.078Z,0.40
2023-01-07T02:09:42.033Z,0.40
2023-01-07T02:11:42.011Z,0.40
2023-01-07T02:13:42.044Z,0.40
2023-01-07T02:15:42.024Z,0.40
2023-01-07T02:17:42.056Z,0.40
2023-01-07T02:19:42.118Z,0.50
2023-01-07T02:21:42.058Z,0.40
2023-01-07T02:24:12.050Z,0.40
2023-01-07T02:26:12.070Z,0.30
2023-01-07T02:28:12.056Z,0.40
2023-01-07T02:30:12.105Z,0.40
2023-01-07T02:32:12.081Z,0.40
2023-01-07T02:34:12.047Z,0.50
2023-01-07T02:36:12.046Z,0.50
2023-01-07T02:38:12.015Z,0.60
2023-01-07T02:40:12.177Z,0.40
2023-01-07T02:42:12.049Z,0.40
2023-01-07T02:44:12.032Z,0.40
2023-01-07T02:46:12.115Z,0.40
2023-01-07T02:48:12.043Z,0.40
2023-01-07T02:50:12.070Z,0.40
2023-01-07T02:52:12.070Z,0.50
2023-01-07T02:54:12.058Z,0.50
2023-01-07T02:56:12.021Z,0.50
2023-01-07T02:58:12.063Z,0.50
2023-01-07T03:00:12.106Z,0.30
2023-01-07T03:02:12.172Z,0.40
2023-01-07T03:04:12.126Z,0.50
2023-01-07T03:06:12.205Z,0.40
2023-01-07T03:08:12.084Z,0.40
2023-01-07T03:10:12.045Z,0.40
2023-01-07T03:12:12.098Z,0.40
2023-01-07T03:14:12.225Z,0.40
2023-01-07T03:16:12.069Z,0.40
2023-01-07T03:18:12.164Z,0.40
2023-01-07T03:20:12.044Z,0.50
2023-01-07T03:22:12.126Z,0.60
2023-01-07T03:24:12.104Z,0.40
2023-01-07T03:26:12.035Z,0.40
2023-01-07T03:28:12.108Z,0.40
2023-01-07T03:30:12.135Z,0.50
2023-01-07T03:32:12.065Z,0.40
2023-01-07T03:34:12.102Z,0.50
2023-01-07T03:36:12.206Z,0.40
2023-01-07T03:38:12.114Z,0.60
2023-01-07T03:40:12.126Z,0.40
2023-01-07T03:42:12.118Z,0.40
2023-01-07T03:44:12.063Z,0.50
2023-01-07T03:46:12.125Z,0.50
2023-01-07T03:48:12.098Z,0.40
2023-01-07T03:50:12.178Z,0.40
2023-01-07T03:52:12.091Z,0.40
2023-01-07T03:54:12.075Z,0.40
2023-01-07T03:56:12.067Z,0.50
2023-01-07T03:58:12.078Z,0.40
2023-01-07T04:00:12.129Z,0.50
2023-01-07T04:02:12.356Z,0.40
2023-01-07T04:04:12.107Z,0.40
2023-01-07T04:06:12.196Z,0.50
2023-01-07T04:08:12.121Z,0.60
2023-01-07T04:10:12.067Z,0.60
2023-01-07T04:12:12.100Z,0.40
2023-01-07T04:14:12.137Z,0.50
2023-01-07T04:16:12.142Z,0.50
2023-01-07T04:18:12.124Z,0.50
2023-01-07T04:20:12.201Z,0.50
2023-01-07T04:22:12.131Z,0.40
2023-01-07T04:26:42.123Z,0.50
2023-01-07T04:28:42.202Z,0.50
2023-01-07T04:30:42.177Z,0.60
2023-01-07T04:32:42.082Z,0.30
2023-01-07T04:34:42.247Z,0.50
2023-01-07T04:36:42.104Z,0.40
2023-01-07T04:38:42.194Z,0.50
2023-01-07T04:40:42.101Z,0.50
2023-01-07T04:42:42.105Z,0.40
2023-01-07T04:44:42.129Z,0.40
2023-01-07T04:46:42.119Z,0.40
2023-01-07T04:48:42.241Z,0.40
2023-01-07T04:50:42.125Z,0.50
2023-01-07T04:52:42.129Z,0.50
2023-01-07T04:54:42.094Z,0.40
2023-01-07T04:56:42.110Z,0.50
2023-01-07T04:58:42.185Z,0.30
2023-01-07T05:00:42.100Z,0.50
2023-01-07T05:02:42.149Z,0.50
2023-01-07T05:04:42.189Z,0.50
2023-01-07T05:06:42.140Z,0.50
2023-01-07T05:08:42.141Z,0.40
2023-01-07T05:10:42.100Z,0.50
2023-01-07T05:12:42.144Z,0.50
2023-01-07T05:14:42.130Z,0.50
2023-01-07T05:16:42.150Z,0.50
2023-01-07T05:18:42.318Z,0.50
2023-01-07T05:20:42.132Z,0.40
2023-01-07T05:22:42.166Z,0.50
2023-01-07T05:24:42.195Z,0.40
2023-01-07T05:26:42.187Z,0.50
2023-01-07T05:28:42.294Z,0.50
2023-01-07T05:30:42.180Z,0.60
2023-01-07T05:32:42.151Z,0.50
2023-01-07T05:34:42.334Z,0.50
2023-01-07T05:36:42.159Z,0.50
2023-01-07T05:38:42.187Z,0.50
2023-01-07T05:40:42.129Z,0.40
2023-01-07T05:42:42.156Z,0.50
2023-01-07T05:44:42.182Z,0.50
2023-01-07T05:46:42.136Z,0.60
2023-01-07T05:48:42.211Z,0.60
2023-01-07T05:50:42.220Z,0.70
2023-01-07T05:52:42.164Z,0.60
2023-01-07T05:54:42.153Z,0.60
2023-01-07T05:56:42.142Z,0.90
2023-01-07T05:58:42.291Z,0.70
2023-01-07T06:00:42.117Z,0.70
2023-01-07T06:02:42.256Z,0.80
2023-01-07T06:04:42.233Z,0.70
2023-01-07T06:06:42.213Z,0.50
2023-01-07T06:08:42.201Z,0.60
2023-01-07T06:10:42.202Z,0.60
2023-01-07T06:12:42.162Z,0.70
2023-01-07T06:14:42.172Z,0.60
2023-01-07T06:16:42.193Z,0.60
2023-01-07T06:18:42.347Z,0.60
2023-01-07T06:20:42.192Z,0.80
2023-01-07T06:23:12.186Z,0.70
2023-01-07T06:25:12.206Z,0.60
2023-01-07T06:27:12.245Z,0.70
2023-01-07T06:29:12.168Z,0.80
2023-01-07T06:31:12.275Z,0.70
2023-01-07T06:33:12.294Z,0.80
2023-01-07T06:35:12.206Z,0.90
2023-01-07T06:37:12.169Z,0.50
2023-01-07T06:39:12.209Z,0.60
2023-01-07T06:41:12.196Z,0.70
2023-01-07T06:43:12.222Z,0.80
2023-01-07T06:45:12.283Z,0.80
2023-01-07T06:47:12.272Z,0.60
2023-01-07T06:49:12.274Z,0.60
2023-01-07T06:51:12.219Z,0.70
2023-01-07T06:53:12.208Z,0.70
2023-01-07T06:55:12.204Z,0.70
2023-01-07T06:57:12.297Z,0.70
2023-01-07T06:59:12.209Z,0.80
2023-01-07T07:01:12.367Z,0.70
2023-01-07T07:03:12.412Z,0.70
2023-01-07T07:05:12.166Z,0.60
2023-01-07T07:07:12.263Z,0.50
2023-01-07T07:09:12.222Z,0.80
2023-01-07T07:11:12.273Z,0.60
2023-01-07T07:13:12.233Z,0.70
2023-01-07T07:15:12.254Z,0.80
2023-01-07T07:17:12.221Z,0.80
2023-01-07T07:19:12.297Z,0.70
2023-01-07T07:21:12.311Z,0.80
2023-01-07T07:23:12.254Z,0.60
2023-01-07T07:25:12.242Z,0.70
2023-01-07T07:27:12.288Z,0.60
2023-01-07T07:29:12.363Z,0.80
2023-01-07T07:31:12.363Z,0.80
2023-01-07T07:33:12.250Z,0.80
2023-01-07T07:35:12.262Z,1.00
2023-01-07T07:37:12.314Z,0.60
2023-01-07T07:39:12.532Z,0.60
2023-01-07T07:41:12.299Z,0.60
2023-01-07T07:45:12.311Z,0.70
2023-01-07T07:47:12.282Z,0.70
2023-01-07T07:49:12.299Z,0.90
2023-01-07T07:51:12.274Z,0.70
2023-01-07T07:53:12.281Z,0.70
2023-01-07T07:55:20.757Z,0.80
2023-01-07T07:57:12.304Z,0.80
2023-01-07T08:01:20.675Z,0.60
2023-01-07T08:03:20.616Z,1.10
2023-01-07T08:05:20.612Z,0.80
2023-01-07T08:07:32.255Z,0.80
2023-01-07T08:09:20.631Z,0.90
2023-01-07T08:11:20.670Z,0.70
2023-01-07T08:13:20.768Z,1.10
2023-01-07T08:15:20.667Z,0.70
2023-01-07T08:17:20.608Z,0.60
2023-01-07T08:19:20.576Z,0.80
2023-01-07T08:21:20.605Z,0.70
2023-01-07T08:23:20.655Z,0.80
2023-01-07T08:25:20.597Z,0.80
2023-01-07T08:27:20.592Z,0.70
2023-01-07T08:29:20.779Z,0.70
2023-01-07T08:31:20.753Z,0.80
2023-01-07T08:33:20.632Z,0.90
2023-01-07T08:35:20.634Z,0.60
2023-01-07T08:37:20.659Z,0.80
2023-01-07T08:39:20.680Z,0.80
2023-01-07T08:41:20.772Z,0.80
2023-01-07T08:43:20.578Z,0.80
2023-01-07T08:45:20.603Z,0.90
2023-01-07T08:47:20.711Z,0.80
2023-01-07T08:49:20.591Z,0.80
2023-01-07T08:51:20.616Z,0.90
2023-01-07T08:53:20.599Z,0.80
2023-01-07T08:55:20.601Z,0.80
2023-01-07T08:57:50.731Z,0.80
2023-01-07T08:59:50.600Z,0.70
2023-01-07T09:01:50.871Z,0.80
2023-01-07T09:03:50.833Z,1.00
2023-01-07T09:05:50.639Z,0.80
2023-01-07T09:07:50.693Z,0.70
2023-01-07T09:09:50.631Z,0.80
2023-01-07T09:11:50.905Z,0.80
2023-01-07T09:13:50.631Z,0.70
2023-01-07T09:15:50.818Z,0.90
2023-01-07T09:17:50.728Z,1.00
2023-01-07T09:19:50.847Z,0.70
2023-01-07T09:21:50.652Z,0.60
2023-01-07T09:23:50.661Z,0.70
2023-01-07T09:25:50.786Z,0.60
2023-01-07T09:27:50.731Z,0.60
2023-01-07T09:29:50.811Z,0.70
2023-01-07T09:31:50.829Z,0.60
2023-01-07T09:33:50.842Z,0.60
2023-01-07T09:35:50.657Z,0.60
2023-01-07T09:37:50.661Z,0.60
2023-01-07T09:39:50.611Z,0.50
2023-01-07T09:41:50.721Z,0.60
2023-01-07T09:44:00.035Z,0.60
2023-01-07T09:45:50.704Z,0.50
2023-01-07T09:47:50.788Z,0.70
2023-01-07T09:49:50.702Z,0.50
2023-01-07T09:51:50.695Z,0.60
2023-01-07T09:53:50.684Z,0.50
2023-01-07T09:56:11.244Z,0.70
2023-01-07T09:57:50.751Z,0.60
2023-01-07T09:59:50.692Z,0.60
2023-01-07T10:01:50.736Z,0.60
2023-01-07T10:03:50.833Z,0.50
2023-01-07T10:05:50.875Z,0.60
2023-01-07T10:07:50.702Z,0.50
2023-01-07T10:09:50.683Z,0.40
2023-01-07T10:11:50.661Z,0.60
2023-01-07T10:13:50.774Z,0.60
2023-01-07T10:15:50.842Z,0.60
2023-01-07T10:17:50.734Z,0.60
2023-01-07T10:19:50.878Z,0.50
2023-01-07T10:21:50.682Z,0.60
2023-01-07T10:23:50.723Z,0.70
2023-01-07T10:25:50.706Z,0.50
2023-01-07T10:27:50.768Z,1.30
2023-01-07T10:29:50.761Z,0.80
2023-01-07T10:31:50.825Z,0.60
2023-01-07T10:33:50.760Z,1.00
2023-01-07T10:35:50.691Z,0.70
2023-01-07T10:37:50.725Z,0.70
2023-01-07T10:39:50.714Z,0.60
2023-01-07T10:41:50.799Z,0.80
2023-01-07T10:43:50.946Z,0.70
2023-01-07T10:45:50.906Z,0.50
2023-01-07T10:47:52.964Z,0.70
2023-01-07T10:49:50.792Z,0.70
2023-01-07T10:51:50.705Z,0.50
2023-01-07T10:53:50.724Z,0.70
2023-01-07T10:55:50.764Z,0.60
2023-01-07T10:57:50.748Z,0.70
2023-01-07T10:59:50.777Z,0.70
2023-01-07T11:02:21.074Z,0.50
2023-01-07T11:04:20.904Z,0.60
2023-01-07T11:06:20.836Z,0.50
2023-01-07T11:08:20.739Z,0.40
2023-01-07T11:10:20.732Z,0.60
2023-01-07T11:12:20.749Z,0.70
2023-01-07T11:14:20.790Z,0.60
2023-01-07T11:16:20.914Z,0.50
2023-01-07T11:18:20.824Z,0.60
2023-01-07T11:20:20.823Z,0.60
2023-01-07T11:22:20.721Z,0.50
2023-01-07T11:24:20.745Z,0.60
2023-01-07T11:26:20.731Z,0.50
2023-01-07T11:28:20.814Z,0.60
2023-01-07T11:30:20.879Z,0.70
2023-01-07T11:32:20.798Z,0.60
2023-01-07T11:34:20.806Z,0.50
2023-01-07T11:36:20.803Z,0.60
2023-01-07T11:38:20.732Z,0.60
2023-01-07T11:40:20.772Z,0.60
2023-01-07T11:42:20.753Z,0.60
2023-01-07T11:44:20.838Z,0.60
2023-01-07T11:46:22.928Z,0.60
2023-01-07T11:48:20.882Z,0.70
2023-01-07T11:50:20.830Z,0.60
2023-01-07T11:52:20.759Z,0.60
2023-01-07T11:54:20.758Z,0.60
2023-01-07T11:56:20.782Z,0.60
2023-01-07T11:58:29.278Z,0.70
2023-01-07T12:00:20.814Z,0.60
2023-01-07T12:02:20.757Z,0.60
2023-01-07T12:04:20.866Z,0.60
2023-01-07T12:06:20.827Z,0.60
2023-01-07T12:08:20.964Z,0.60
2023-01-07T12:10:20.855Z,0.60
2023-01-07T12:12:20.777Z,0.60
2023-01-07T12:14:20.823Z,0.60
2023-01-07T12:16:20.880Z,0.60
2023-01-07T12:18:20.832Z,0.50
2023-01-07T12:20:20.861Z,0.60
2023-01-07T12:22:20.881Z,0.60
2023-01-07T12:24:20.834Z,0.60
2023-01-07T12:26:20.777Z,0.60
2023-01-07T12:28:20.798Z,0.70
2023-01-07T12:30:20.897Z,0.60
2023-01-07T12:32:20.822Z,0.60
2023-01-07T12:34:20.857Z,0.50
2023-01-07T12:36:20.903Z,0.60
2023-01-07T12:38:20.868Z,0.50
2023-01-07T12:40:20.781Z,0.60
2023-01-07T12:44:20.796Z,0.60
2023-01-07T12:46:20.957Z,0.50
2023-01-07T12:48:20.907Z,0.50
2023-01-07T12:50:20.878Z,0.60
2023-01-07T12:52:20.895Z,0.50
2023-01-07T12:54:20.949Z,0.50
2023-01-07T12:56:22.375Z,0.50
2023-01-07T12:58:20.807Z,0.60
2023-01-07T13:00:20.830Z,0.60
2023-01-07T13:02:20.931Z,0.60
2023-01-07T13:04:50.935Z,0.40
2023-01-07T13:06:50.860Z,0.60
2023-01-07T13:08:50.987Z,0.50
2023-01-07T13:10:50.801Z,0.50
2023-01-07T13:12:50.847Z,0.50
2023-01-07T13:14:50.850Z,0.50
2023-01-07T13:16:50.903Z,0.50
2023-01-07T13:18:50.854Z,0.60
2023-01-07T13:20:50.947Z,0.60
2023-01-07T13:22:50.923Z,0.50
2023-01-07T13:24:54.717Z,0.60
2023-01-07T13:26:50.848Z,0.50
2023-01-07T13:28:50.806Z,0.50
2023-01-07T13:30:50.899Z,0.60
2023-01-07T13:32:50.870Z,0.50
2023-01-07T13:34:50.885Z,0.50
2023-01-07T13:36:50.921Z,0.50
2023-01-07T13:38:50.931Z,0.60
2023-01-07T13:40:50.824Z,0.50
2023-01-07T13:42:50.875Z,0.60
2023-01-07T13:44:50.870Z,0.60
2023-01-07T13:46:50.878Z,0.50
2023-01-07T13:48:50.871Z,0.60
2023-01-07T13:50:50.973Z,0.50
2023-01-07T13:52:50.921Z,0.50
2023-01-07T13:54:50.810Z,0.50
2023-01-07T13:56:50.857Z,0.70
2023-01-07T13:58:50.840Z,0.60
2023-01-07T14:00:50.934Z,0.60
2023-01-07T14:02:51.060Z,0.60
2023-01-07T14:04:50.893Z,0.60
2023-01-07T14:06:50.978Z,0.50
2023-01-07T14:08:50.936Z,0.40
2023-01-07T14:10:50.964Z,0.60
2023-01-07T14:12:51.046Z,0.50
2023-01-07T14:14:50.884Z,0.60
2023-01-07T14:16:50.949Z,0.50
2023-01-07T14:18:50.918Z,0.60
2023-01-07T14:20:50.868Z,0.60
2023-01-07T14:22:50.875Z,0.60
2023-01-07T14:24:51.137Z,0.60
2023-01-07T14:26:50.970Z,0.50
2023-01-07T14:28:50.898Z,0.70
2023-01-07T14:30:51.029Z,0.60
2023-01-07T14:32:50.970Z,0.60
2023-01-07T14:34:50.985Z,0.60
2023-01-07T14:36:50.943Z,0.60
2023-01-07T14:38:51.042Z,0.60
2023-01-07T14:40:51.035Z,0.50
2023-01-07T14:42:50.966Z,0.60
2023-01-07T14:44:50.961Z,0.50
2023-01-07T14:46:51.064Z,0.60
2023-01-07T14:48:50.947Z,0.50
2023-01-07T14:50:50.949Z,0.50
2023-01-07T14:52:51.069Z,0.50
2023-01-07T14:55:20.977Z,0.60
2023-01-07T14:57:20.922Z,0.50
2023-01-07T14:59:20.901Z,0.60
2023-01-07T15:01:21.106Z,0.60
2023-01-07T15:05:20.985Z,0.50
2023-01-07T15:07:20.977Z,0.50
2023-01-07T15:09:20.978Z,0.60
2023-01-07T15:11:00.584Z,0.70
2023-01-07T15:13:00.615Z,0.60
2023-01-07T15:15:00.744Z,0.50
2023-01-07T15:17:00.675Z,0.70
2023-01-07T15:19:00.757Z,0.50
2023-01-07T15:21:00.681Z,0.50
2023-01-07T15:23:00.582Z,0.50
2023-01-07T15:25:00.664Z,0.50
2023-01-07T15:27:00.599Z,0.70
2023-01-07T15:29:00.680Z,0.70
2023-01-07T15:31:30.765Z,0.80
2023-01-07T15:33:30.767Z,0.70
2023-01-07T15:35:30.767Z,0.80
2023-01-07T15:37:30.580Z,0.60
2023-01-07T15:39:30.603Z,0.80
2023-01-07T15:41:30.666Z,0.60
2023-01-07T15:43:30.632Z,0.60
2023-01-07T15:45:30.664Z,0.90
2023-01-07T15:47:30.693Z,0.60
2023-01-07T15:49:30.708Z,0.70
2023-01-07T15:51:30.599Z,0.80
2023-01-07T15:53:30.649Z,0.70
2023-01-07T15:55:30.549Z,0.90
2023-01-07T15:57:30.610Z,0.60
2023-01-07T15:59:30.652Z,0.80
2023-01-07T16:01:30.737Z,0.70
2023-01-07T16:03:30.763Z,0.50
2023-01-07T16:05:30.702Z,0.60
2023-01-07T16:07:30.608Z,0.60
2023-01-07T16:09:32.748Z,1.00
2023-01-07T16:11:30.670Z,0.60
2023-01-07T16:13:30.621Z,0.80
2023-01-07T16:15:30.752Z,1.10
2023-01-07T16:17:30.704Z,0.80
2023-01-07T16:19:30.604Z,0.70
2023-01-07T16:21:30.614Z,0.70
2023-01-07T16:23:30.608Z,0.80
2023-01-07T16:25:30.603Z,1.00
2023-01-07T16:27:30.661Z,0.50
2023-01-07T16:29:30.631Z,0.60
2023-01-07T16:31:30.694Z,0.70
2023-01-07T16:33:30.779Z,0.60
2023-01-07T16:35:30.792Z,0.80
2023-01-07T16:37:30.672Z,0.80
2023-01-07T16:39:30.694Z,0.90
2023-01-07T16:41:30.662Z,0.80
2023-01-07T16:43:30.748Z,0.70
2023-01-07T16:45:30.691Z,0.90
2023-01-07T16:47:30.710Z,0.80
2023-01-07T16:49:30.692Z,0.70
2023-01-07T16:51:30.631Z,0.70
2023-01-07T16:53:30.637Z,0.70
2023-01-07T16:55:30.733Z,0.70
2023-01-07T16:57:30.684Z,0.70
2023-01-07T16:59:30.765Z,0.80
2023-01-07T17:01:30.927Z,0.80
2023-01-07T17:03:30.775Z,0.70
2023-01-07T17:05:30.815Z,1.00
2023-01-07T17:07:30.680Z,0.70
2023-01-07T17:09:30.601Z,0.70
2023-01-07T17:11:30.674Z,0.80
2023-01-07T17:13:30.763Z,0.70
2023-01-07T17:15:30.715Z,0.80
2023-01-07T17:18:00.751Z,0.60
2023-01-07T17:20:00.813Z,1.10
2023-01-07T17:22:00.655Z,1.10
2023-01-07T17:24:00.648Z,0.70
2023-01-07T17:26:00.641Z,0.80
2023-01-07T17:28:00.723Z,1.00
2023-01-07T17:30:00.672Z,1.00
2023-01-07T17:32:00.712Z,0.90
2023-01-07T17:34:00.604Z,0.80
2023-01-07T17:36:00.714Z,0.70
2023-01-07T17:38:00.694Z,0.90
2023-01-07T17:40:00.669Z,0.60
2023-01-07T17:42:00.673Z,0.80
2023-01-07T17:44:00.717Z,0.70
2023-01-07T17:46:00.762Z,0.80
2023-01-07T17:48:00.742Z,0.60
2023-01-07T17:50:00.833Z,0.60
2023-01-07T17:52:00.838Z,0.80
2023-01-07T17:54:00.804Z,0.70
2023-01-07T17:56:00.769Z,0.80
2023-01-07T17:58:00.675Z,0.80
2023-01-07T18:00:00.834Z,0.90
2023-01-07T18:02:00.941Z,0.70
2023-01-07T18:04:00.738Z,0.70
2023-01-07T18:06:00.744Z,0.50
2023-01-07T18:08:00.856Z,0.80
2023-01-07T18:10:00.654Z,0.70
2023-01-07T18:12:00.676Z,0.60
2023-01-07T18:14:00.687Z,0.80
2023-01-07T18:16:00.841Z,0.90
2023-01-07T18:18:00.847Z,0.70
2023-01-07T18:20:00.776Z,0.70
2023-01-07T18:22:00.762Z,0.80
2023-01-07T18:24:00.669Z,0.80
2023-01-07T18:26:00.676Z,1.00
2023-01-07T18:28:00.723Z,0.80
2023-01-07T18:30:00.744Z,0.70
2023-01-07T18:32:00.833Z,0.80
2023-01-07T18:34:00.861Z,0.80
2023-01-07T18:36:00.700Z,0.80
2023-01-07T18:38:00.874Z,0.90
2023-01-07T18:40:00.721Z,0.90
2023-01-07T18:42:00.797Z,0.70
2023-01-07T18:44:00.721Z,0.80
2023-01-07T18:46:00.841Z,0.90
2023-01-07T18:48:00.741Z,0.60
2023-01-07T18:50:00.822Z,0.90
2023-01-07T18:52:01.741Z,1.00
2023-01-07T18:54:00.704Z,0.70
2023-01-07T18:56:00.911Z,0.80
2023-01-07T18:58:00.694Z,1.00
2023-01-07T19:00:00.717Z,0.80
2023-01-07T19:02:00.837Z,0.70
2023-01-07T19:04:30.756Z,0.70
2023-01-07T19:06:30.691Z,1.20
2023-01-07T19:08:30.712Z,2.00
2023-01-07T19:10:30.676Z,1.30
2023-01-07T19:12:30.730Z,2.20
2023-01-07T19:14:30.750Z,1.60
2023-01-07T19:16:30.787Z,1.50
2023-01-07T19:18:30.792Z,1.20
2023-01-07T19:20:30.927Z,1.50
2023-01-07T19:22:30.706Z,1.10
2023-01-07T19:24:30.906Z,1.60
2023-01-07T19:26:30.933Z,1.20
2023-01-07T19:28:30.754Z,0.90
2023-01-07T19:30:30.760Z,0.90
2023-01-07T19:32:30.863Z,2.00
2023-01-07T19:34:30.876Z,1.20
2023-01-07T19:36:30.745Z,1.30
2023-01-07T19:38:30.743Z,1.10
2023-01-07T19:40:30.714Z,1.10
2023-01-07T19:42:30.724Z,2.10
2023-01-07T19:44:30.948Z,1.40
2023-01-07T19:46:30.754Z,1.40
2023-01-07T19:48:30.765Z,1.10
2023-01-07T19:50:30.848Z,1.20
2023-01-07T19:52:30.713Z,1.30
2023-01-07T19:54:30.725Z,1.50
2023-01-07T19:56:30.780Z,0.90
2023-01-07T19:58:30.852Z,1.00
2023-01-07T20:00:30.787Z,1.20
2023-01-07T20:02:30.984Z,1.30
2023-01-07T20:04:30.817Z,1.10
2023-01-07T20:06:30.809Z,1.30
2023-01-07T20:08:30.749Z,1.00
2023-01-07T20:10:30.721Z,1.10
2023-01-07T20:12:30.781Z,1.00
2023-01-07T20:14:30.774Z,0.90
2023-01-07T20:16:30.799Z,0.80
2023-01-07T20:18:30.832Z,1.00
2023-01-07T20:20:30.910Z,1.10
2023-01-07T20:22:30.730Z,1.00
2023-01-07T20:24:30.754Z,1.00
2023-01-07T20:26:30.714Z,0.70
2023-01-07T20:28:30.780Z,0.90
2023-01-07T20:30:30.828Z,0.70
2023-01-07T20:32:30.834Z,0.80
2023-01-07T20:34:30.915Z,0.70
2023-01-07T20:36:30.745Z,0.80
2023-01-07T20:38:30.723Z,1.00
2023-01-07T20:40:30.720Z,1.10
2023-01-07T20:42:30.862Z,0.90
2023-01-07T20:44:30.775Z,0.90
2023-01-07T20:46:30.890Z,0.80
2023-01-07T20:48:30.816Z,0.90
2023-01-07T20:51:00.832Z,0.70
2023-01-07T20:53:00.732Z,0.70
2023-01-07T20:55:00.734Z,1.00
2023-01-07T20:57:00.755Z,0.80
2023-01-07T20:59:00.792Z,0.90
2023-01-07T21:01:00.911Z,0.90
2023-01-07T21:03:00.920Z,0.80
2023-01-07T21:05:00.850Z,1.00
2023-01-07T21:07:00.734Z,1.00
2023-01-07T21:09:00.963Z,0.90
2023-01-07T21:11:00.842Z,0.70
2023-01-07T21:13:00.799Z,0.70
2023-01-07T21:15:00.812Z,0.90
2023-01-07T21:17:00.822Z,0.80
2023-01-07T21:19:00.943Z,0.80
2023-01-07T21:21:00.870Z,1.00
2023-01-07T21:23:00.842Z,0.70
2023-01-07T21:25:00.862Z,0.90
2023-01-07T21:27:00.851Z,0.70
2023-01-07T21:29:00.830Z,0.90
2023-01-07T21:31:00.813Z,0.80
2023-01-07T21:33:00.853Z,1.00
2023-01-07T21:35:00.893Z,0.80
2023-01-07T21:37:01.080Z,0.90
2023-01-07T21:39:00.966Z,0.90
2023-01-07T21:41:00.867Z,0.90
2023-01-07T21:43:00.940Z,0.80
2023-01-07T21:45:00.805Z,0.90
2023-01-07T21:47:00.869Z,0.90
2023-01-07T21:49:00.907Z,0.60
2023-01-07T21:51:00.879Z,0.80
2023-01-07T21:53:00.845Z,0.80
2023-01-07T21:55:00.787Z,0.70
2023-01-07T21:57:00.906Z,0.90
2023-01-07T21:59:01.016Z,0.90
2023-01-07T22:01:00.946Z,1.10
2023-01-07T22:03:00.933Z,0.80
2023-01-07T22:05:00.963Z,1.00
2023-01-07T22:07:00.849Z,0.70
2023-01-07T22:09:00.823Z,0.80
2023-01-07T22:11:00.855Z,0.80
2023-01-07T22:15:09.266Z,0.50
2023-01-07T22:17:09.308Z,0.50
2023-01-07T22:19:09.251Z,0.50
2023-01-07T22:21:09.274Z,0.80
2023-01-07T22:23:09.288Z,0.50
2023-01-07T22:25:09.263Z,0.50
2023-01-07T22:27:09.297Z,0.70
2023-01-07T22:29:09.326Z,0.70
2023-01-07T22:31:09.465Z,0.80
2023-01-07T22:33:09.374Z,1.00
2023-01-07T22:35:09.467Z,0.90
2023-01-07T22:37:09.301Z,0.80
2023-01-07T22:39:09.518Z,0.90
2023-01-07T22:41:09.259Z,0.70
2023-01-07T22:43:09.344Z,0.80
2023-01-07T22:45:09.447Z,0.80
2023-01-07T22:47:09.400Z,0.80
2023-01-07T22:49:09.294Z,0.90
2023-01-07T22:51:09.368Z,0.70
2023-01-07T22:53:09.324Z,0.70
2023-01-07T22:55:09.521Z,0.90
2023-01-07T22:57:09.353Z,0.80
2023-01-07T22:59:09.389Z,0.70
2023-01-07T23:01:09.443Z,0.70
2023-01-07T23:03:09.495Z,0.80
2023-01-07T23:05:09.476Z,0.90
2023-01-07T23:07:39.308Z,0.90
2023-01-07T23:09:39.415Z,0.80
2023-01-07T23:11:39.349Z,0.90
2023-01-07T23:13:39.304Z,1.00
2023-01-07T23:15:39.461Z,0.90
2023-01-07T23:17:39.472Z,0.80
2023-01-07T23:19:39.405Z,0.90
2023-01-07T23:21:39.392Z,0.70
2023-01-07T23:23:39.397Z,0.80
2023-01-07T23:25:39.317Z,0.80
2023-01-07T23:27:39.599Z,0.70
2023-01-07T23:29:39.485Z,0.70
2023-01-07T23:31:39.524Z,0.90
2023-01-07T23:33:39.409Z,0.90
2023-01-07T23:35:39.511Z,1.50
2023-01-07T23:37:39.518Z,0.90
2023-01-07T23:39:39.561Z,0.90
2023-01-07T23:41:39.361Z,1.10
2023-01-07T23:43:39.398Z,1.00
2023-01-07T23:45:39.428Z,1.00
2023-01-07T23:47:39.502Z,0.80
2023-01-07T23:49:39.448Z,0.90
2023-01-07T23:51:39.425Z,0.60
2023-01-07T23:53:39.542Z,0.60
2023-01-07T23:55:39.363Z,0.80
2023-01-07T23:57:39.363Z,0.90
2023-01-07T23:59:39.325Z,0.60
